createdAt,value
2018-04-02T00:00:16.893Z,1006.61
2018-04-02T00:01:17.201Z,1006.67
2018-04-02T00:02:16.944Z,1006.65
2018-04-02T00:03:17.141Z,1006.65
2018-04-02T00:04:17.222Z,1006.66
2018-04-02T00:05:17.301Z,1006.64
2018-04-02T00:06:17.423Z,1006.71
2018-04-02T00:07:17.600Z,1006.71
2018-04-02T00:08:17.560Z,1006.72
2018-04-02T00:09:17.717Z,1006.75
2018-04-02T00:10:17.716Z,1006.75
2018-04-02T00:11:17.753Z,1006.73
2018-04-02T00:12:17.853Z,1006.77
2018-04-02T00:13:17.860Z,1006.75
2018-04-02T00:14:17.904Z,1006.66
2018-04-02T00:15:17.970Z,1006.78
2018-04-02T00:16:18.064Z,1006.75
2018-04-02T00:17:17.969Z,1006.76
2018-04-02T00:18:18.012Z,1006.72
2018-04-02T00:19:18.017Z,1006.75
2018-04-02T00:20:18.049Z,1006.77
2018-04-02T00:21:18.433Z,1006.82
2018-04-02T00:22:18.460Z,1006.79
2018-04-02T00:23:18.488Z,1006.77
2018-04-02T00:24:18.576Z,1006.79
2018-04-02T00:25:19.001Z,1006.78
2018-04-02T00:26:19.023Z,1006.72
2018-04-02T00:27:19.346Z,1006.82
2018-04-02T00:28:31.245Z,1006.81
2018-04-02T00:29:31.200Z,1006.84
2018-04-02T00:30:31.421Z,1006.82
2018-04-02T00:31:31.443Z,1006.84
2018-04-02T00:32:31.692Z,1006.89
2018-04-02T00:33:31.738Z,1006.83
2018-04-02T00:34:31.733Z,1006.81
2018-04-02T00:35:31.758Z,1006.85
2018-04-02T00:36:31.971Z,1006.92
2018-04-02T00:37:32.002Z,1006.9
2018-04-02T00:38:32.252Z,1006.89
2018-04-02T00:39:32.494Z,1006.94
2018-04-02T00:40:32.511Z,1006.9
2018-04-02T00:41:32.538Z,1006.92
2018-04-02T00:42:32.554Z,1006.85
2018-04-02T00:43:32.769Z,1006.88
2018-04-02T00:44:32.785Z,1006.89
2018-04-02T00:45:32.810Z,1006.87
2018-04-02T00:46:32.837Z,1006.88
2018-04-02T00:47:32.864Z,1006.93
2018-04-02T00:48:33.091Z,1006.95
2018-04-02T00:49:33.108Z,1006.98
2018-04-02T00:50:33.164Z,1006.93
2018-04-02T00:51:33.348Z,1006.91
2018-04-02T00:52:33.368Z,1006.95
2018-04-02T00:53:33.394Z,1006.91
2018-04-02T00:54:33.696Z,1006.96
2018-04-02T00:55:33.716Z,1006.98
2018-04-02T00:56:33.966Z,1007.05
2018-04-02T00:57:33.978Z,1007.01
2018-04-02T00:58:34.177Z,1007.1
2018-04-02T00:59:34.405Z,1007.01
2018-04-02T01:00:34.433Z,1007.05
2018-04-02T01:01:34.456Z,1007.02
2018-04-02T01:02:34.484Z,1007.08
2018-04-02T01:03:34.504Z,1007.08
2018-04-02T01:04:34.533Z,1007
2018-04-02T01:05:34.553Z,1007.06
2018-04-02T01:06:34.839Z,1007.06
2018-04-02T01:07:34.882Z,1007.06
2018-04-02T01:08:34.912Z,1007.14
2018-04-02T01:09:34.938Z,1007.1
2018-04-02T01:10:34.954Z,1007.09
2018-04-02T01:11:34.971Z,1007.09
2018-04-02T01:12:35.285Z,1007.09
2018-04-02T01:13:35.303Z,1007.06
2018-04-02T01:14:35.326Z,1007.05
2018-04-02T01:15:35.355Z,1007.07
2018-04-02T01:16:35.389Z,1007.12
2018-04-02T01:17:35.403Z,1007.15
2018-04-02T01:18:35.424Z,1007.13
2018-04-02T01:19:35.739Z,1007.14
2018-04-02T01:20:35.759Z,1007.12
2018-04-02T01:21:36.044Z,1007.1
2018-04-02T01:22:36.066Z,1007.13
2018-04-02T01:23:36.337Z,1007.17
2018-04-02T01:24:36.358Z,1007.16
2018-04-02T01:25:36.365Z,1007.17
2018-04-02T01:26:36.405Z,1007.15
2018-04-02T01:27:36.420Z,1007.19
2018-04-02T01:28:36.434Z,1007.18
2018-04-02T01:29:36.475Z,1007.17
2018-04-02T01:30:36.496Z,1007.19
2018-04-02T01:31:36.522Z,1007.16
2018-04-02T01:32:36.549Z,1007.23
2018-04-02T01:33:36.572Z,1007.26
2018-04-02T01:34:36.598Z,1007.24
2018-04-02T01:35:36.869Z,1007.23
2018-04-02T01:36:37.169Z,1007.3
2018-04-02T01:37:37.191Z,1007.28
2018-04-02T01:38:37.216Z,1007.28
2018-04-02T01:39:37.242Z,1007.29
2018-04-02T01:40:37.567Z,1007.28
2018-04-02T01:41:37.589Z,1007.28
2018-04-02T01:42:37.611Z,1007.32
2018-04-02T01:43:37.967Z,1007.38
2018-04-02T01:44:37.989Z,1007.37
2018-04-02T01:45:38.030Z,1007.35
2018-04-02T01:46:38.044Z,1007.39
2018-04-02T01:47:38.072Z,1007.44
2018-04-02T01:48:38.659Z,1007.42
2018-04-02T01:49:38.594Z,1007.44
2018-04-02T01:50:38.606Z,1007.44
2018-04-02T01:51:38.632Z,1007.44
2018-04-02T01:52:38.858Z,1007.44
2018-04-02T01:53:38.672Z,1007.38
2018-04-02T01:54:38.699Z,1007.39
2018-04-02T01:55:39.005Z,1007.35
2018-04-02T01:56:39.056Z,1007.41
2018-04-02T01:57:39.457Z,1007.42
2018-04-02T01:58:39.484Z,1007.38
2018-04-02T01:59:39.525Z,1007.38
2018-04-02T02:00:39.510Z,1007.4
2018-04-02T02:01:39.659Z,1007.39
2018-04-02T02:02:39.760Z,1007.38
2018-04-02T02:03:40.327Z,1007.43
2018-04-02T02:04:40.499Z,1007.42
2018-04-02T02:05:40.459Z,1007.43
2018-04-02T02:06:40.611Z,1007.41
2018-04-02T02:07:40.491Z,1007.43
2018-04-02T02:08:40.910Z,1007.41
2018-04-02T02:09:40.907Z,1007.44
2018-04-02T02:10:40.925Z,1007.48
2018-04-02T02:11:41.021Z,1007.49
2018-04-02T02:12:41.271Z,1007.51
2018-04-02T02:13:41.299Z,1007.54
2018-04-02T02:14:41.673Z,1007.5
2018-04-02T02:15:42.054Z,1007.54
2018-04-02T02:16:42.077Z,1007.53
2018-04-02T02:17:42.504Z,1007.57
2018-04-02T02:18:42.918Z,1007.54
2018-04-02T02:19:43.052Z,1007.51
2018-04-02T02:20:43.079Z,1007.59
2018-04-02T02:21:43.465Z,1007.52
2018-04-02T02:22:43.674Z,1007.53
2018-04-02T02:23:43.880Z,1007.57
2018-04-02T02:24:43.914Z,1007.54
2018-04-02T02:25:44.088Z,1007.58
2018-04-02T02:26:44.109Z,1007.57
2018-04-02T02:27:44.148Z,1007.55
2018-04-02T02:28:44.153Z,1007.55
2018-04-02T02:29:44.174Z,1007.55
2018-04-02T02:30:44.251Z,1007.55
2018-04-02T02:31:44.220Z,1007.59
2018-04-02T02:32:44.243Z,1007.54
2018-04-02T02:33:44.262Z,1007.57
2018-04-02T02:34:44.289Z,1007.53
2018-04-02T02:35:44.706Z,1007.57
2018-04-02T02:36:44.728Z,1007.64
2018-04-02T02:37:44.765Z,1007.6
2018-04-02T02:38:44.772Z,1007.62
2018-04-02T02:39:44.794Z,1007.58
2018-04-02T02:40:44.817Z,1007.61
2018-04-02T02:41:44.966Z,1007.63
2018-04-02T02:42:45.446Z,1007.65
2018-04-02T02:43:45.496Z,1007.62
2018-04-02T02:44:45.477Z,1007.6
2018-04-02T02:45:45.867Z,1007.59
2018-04-02T02:46:45.897Z,1007.61
2018-04-02T02:47:45.899Z,1007.61
2018-04-02T02:48:45.927Z,1007.65
2018-04-02T02:49:46.013Z,1007.63
2018-04-02T02:50:45.967Z,1007.66
2018-04-02T02:51:46.126Z,1007.67
2018-04-02T02:52:46.562Z,1007.74
2018-04-02T02:53:46.584Z,1007.72
2018-04-02T02:54:46.616Z,1007.69
2018-04-02T02:55:47.031Z,1007.67
2018-04-02T02:56:47.510Z,1007.66
2018-04-02T02:57:47.680Z,1007.71
2018-04-02T02:58:47.728Z,1007.67
2018-04-02T02:59:47.748Z,1007.67
2018-04-02T03:00:47.907Z,1007.69
2018-04-02T03:01:48.035Z,1007.64
2018-04-02T03:02:48.048Z,1007.71
2018-04-02T03:03:48.172Z,1007.63
2018-04-02T03:04:48.598Z,1007.65
2018-04-02T03:05:48.995Z,1007.63
2018-04-02T03:06:49.017Z,1007.67
2018-04-02T03:07:49.042Z,1007.69
2018-04-02T03:08:49.067Z,1007.67
2018-04-02T03:09:49.481Z,1007.71
2018-04-02T03:10:49.503Z,1007.74
2018-04-02T03:11:49.637Z,1007.73
2018-04-02T03:12:50.043Z,1007.67
2018-04-02T03:13:50.461Z,1007.66
2018-04-02T03:14:50.488Z,1007.7
2018-04-02T03:15:50.839Z,1007.68
2018-04-02T03:16:51.234Z,1007.71
2018-04-02T03:17:51.255Z,1007.7
2018-04-02T03:18:51.381Z,1007.73
2018-04-02T03:19:51.403Z,1007.7
2018-04-02T03:20:51.543Z,1007.74
2018-04-02T03:21:51.942Z,1007.7
2018-04-02T03:22:52.346Z,1007.66
2018-04-02T03:23:52.484Z,1007.7
2018-04-02T03:24:52.493Z,1007.73
2018-04-02T03:25:52.517Z,1007.75
2018-04-02T03:26:52.557Z,1007.74
2018-04-02T03:27:52.559Z,1007.73
2018-04-02T03:28:53.017Z,1007.75
2018-04-02T03:29:53.031Z,1007.76
2018-04-02T03:30:53.454Z,1007.76
2018-04-02T03:31:53.854Z,1007.77
2018-04-02T03:32:54.279Z,1007.8
2018-04-02T03:33:54.303Z,1007.84
2018-04-02T03:34:54.350Z,1007.83
2018-04-02T03:35:54.362Z,1007.81
2018-04-02T03:36:54.369Z,1007.86
2018-04-02T03:37:54.808Z,1007.89
2018-04-02T03:38:54.844Z,1007.94
2018-04-02T03:39:54.995Z,1007.96
2018-04-02T03:40:55.015Z,1007.9
2018-04-02T03:41:55.175Z,1007.92
2018-04-02T03:42:55.308Z,1007.94
2018-04-02T03:43:55.573Z,1007.93
2018-04-02T03:44:55.591Z,1007.97
2018-04-02T03:45:55.783Z,1007.99
2018-04-02T03:46:55.901Z,1008.05
2018-04-02T03:47:56.318Z,1007.94
2018-04-02T03:48:56.343Z,1007.98
2018-04-02T03:49:56.376Z,1008.01
2018-04-02T03:50:56.517Z,1008
2018-04-02T03:51:56.636Z,1008.03
2018-04-02T03:52:56.724Z,1008.04
2018-04-02T03:53:56.820Z,1007.96
2018-04-02T03:54:56.693Z,1007.98
2018-04-02T03:55:56.781Z,1008.07
2018-04-02T03:56:56.744Z,1008.03
2018-04-02T03:57:56.756Z,1008.03
2018-04-02T03:58:56.778Z,1008.03
2018-04-02T03:59:56.798Z,1007.94
2018-04-02T04:00:56.822Z,1007.97
2018-04-02T04:01:57.131Z,1008.02
2018-04-02T04:02:57.155Z,1008.02
2018-04-02T04:03:57.402Z,1007.95
2018-04-02T04:04:57.602Z,1007.95
2018-04-02T04:05:57.861Z,1008.02
2018-04-02T04:06:57.866Z,1008
2018-04-02T04:07:57.851Z,1007.97
2018-04-02T04:08:57.871Z,1008.04
2018-04-02T04:09:57.893Z,1007.96
2018-04-02T04:10:57.913Z,1007.97
2018-04-02T04:11:57.941Z,1007.99
2018-04-02T04:12:58.259Z,1007.99
2018-04-02T04:13:57.995Z,1008.01
2018-04-02T04:14:58.490Z,1008.03
2018-04-02T04:15:58.442Z,1007.95
2018-04-02T04:16:58.702Z,1008.08
2018-04-02T04:17:58.746Z,1008.02
2018-04-02T04:18:58.743Z,1008.04
2018-04-02T04:19:58.766Z,1008.08
2018-04-02T04:20:58.968Z,1008.07
2018-04-02T04:21:58.927Z,1008.03
2018-04-02T04:22:58.966Z,1008.08
2018-04-02T04:23:58.995Z,1008.1
2018-04-02T04:24:59.248Z,1008.15
2018-04-02T04:25:59.285Z,1008.16
2018-04-02T04:26:59.745Z,1008.13
2018-04-02T04:27:59.859Z,1008.2
2018-04-02T04:29:00.195Z,1008.21
2018-04-02T04:30:00.805Z,1008.2
2018-04-02T04:31:00.945Z,1008.19
2018-04-02T04:32:00.969Z,1008.2
2018-04-02T04:33:01.108Z,1008.19
2018-04-02T04:34:01.390Z,1008.22
2018-04-02T04:35:01.413Z,1008.17
2018-04-02T04:36:01.433Z,1008.21
2018-04-02T04:37:01.450Z,1008.23
2018-04-02T04:38:01.835Z,1008.21
2018-04-02T04:39:01.863Z,1008.19
2018-04-02T04:40:02.304Z,1008.2
2018-04-02T04:41:02.319Z,1008.21
2018-04-02T04:42:02.477Z,1008.28
2018-04-02T04:43:02.863Z,1008.29
2018-04-02T04:44:02.875Z,1008.24
2018-04-02T04:45:02.955Z,1008.26
2018-04-02T04:46:02.939Z,1008.22
2018-04-02T04:47:03.056Z,1008.23
2018-04-02T04:48:03.452Z,1008.26
2018-04-02T04:49:03.958Z,1008.32
2018-04-02T04:50:04.162Z,1008.26
2018-04-02T04:51:04.194Z,1008.28
2018-04-02T04:52:04.477Z,1008.32
2018-04-02T04:53:04.450Z,1008.3
2018-04-02T04:54:04.506Z,1008.24
2018-04-02T04:55:04.794Z,1008.32
2018-04-02T04:56:04.752Z,1008.25
2018-04-02T04:57:04.921Z,1008.33
2018-04-02T04:58:05.196Z,1008.35
2018-04-02T04:59:05.631Z,1008.36
2018-04-02T05:00:11.979Z,1008.32
2018-04-02T05:01:05.668Z,1008.33
2018-04-02T05:02:05.722Z,1008.36
2018-04-02T05:03:05.707Z,1008.34
2018-04-02T05:04:05.887Z,1008.38
2018-04-02T05:05:06.171Z,1008.32
2018-04-02T05:06:06.561Z,1008.32
2018-04-02T05:07:06.651Z,1008.31
2018-04-02T05:08:06.699Z,1008.35
2018-04-02T05:09:06.669Z,1008.36
2018-04-02T05:10:06.998Z,1008.34
2018-04-02T05:11:07.014Z,1008.31
2018-04-02T05:12:07.056Z,1008.37
2018-04-02T05:13:07.456Z,1008.43
2018-04-02T05:14:07.455Z,1008.4
2018-04-02T05:15:07.836Z,1008.46
2018-04-02T05:16:07.837Z,1008.44
2018-04-02T05:17:08.068Z,1008.47
2018-04-02T05:18:08.103Z,1008.42
2018-04-02T05:19:08.192Z,1008.44
2018-04-02T05:20:08.484Z,1008.45
2018-04-02T05:21:08.491Z,1008.47
2018-04-02T05:22:08.513Z,1008.5
2018-04-02T05:23:08.552Z,1008.52
2018-04-02T05:24:08.613Z,1008.51
2018-04-02T05:25:08.753Z,1008.52
2018-04-02T05:26:08.772Z,1008.52
2018-04-02T05:27:09.505Z,1008.53
2018-04-02T05:28:09.911Z,1008.55
2018-04-02T05:29:09.948Z,1008.52
2018-04-02T05:30:10.348Z,1008.58
2018-04-02T05:31:10.452Z,1008.55
2018-04-02T05:32:10.706Z,1008.59
2018-04-02T05:33:10.750Z,1008.63
2018-04-02T05:34:11.081Z,1008.58
2018-04-02T05:35:10.957Z,1008.62
2018-04-02T05:36:11.149Z,1008.64
2018-04-02T05:37:10.866Z,1008.68
2018-04-02T05:38:10.861Z,1008.67
2018-04-02T05:39:10.893Z,1008.65
2018-04-02T05:40:10.985Z,1008.69
2018-04-02T05:41:11.415Z,1008.72
2018-04-02T05:42:11.458Z,1008.71
2018-04-02T05:43:11.850Z,1008.69
2018-04-02T05:44:11.877Z,1008.69
2018-04-02T05:45:11.895Z,1008.69
2018-04-02T05:46:11.914Z,1008.69
2018-04-02T05:47:12.347Z,1008.71
2018-04-02T05:48:12.377Z,1008.75
2018-04-02T05:49:12.763Z,1008.75
2018-04-02T05:50:12.954Z,1008.78
2018-04-02T05:51:13.123Z,1008.72
2018-04-02T05:52:13.294Z,1008.73
2018-04-02T05:53:13.287Z,1008.77
2018-04-02T05:54:13.379Z,1008.76
2018-04-02T05:55:13.332Z,1008.77
2018-04-02T05:56:13.467Z,1008.85
2018-04-02T05:57:13.506Z,1008.81
2018-04-02T05:58:13.519Z,1008.79
2018-04-02T05:59:13.543Z,1008.78
2018-04-02T06:00:16.908Z,1008.78
2018-04-02T06:01:17.670Z,1008.73
2018-04-02T06:02:17.657Z,1008.78
2018-04-02T06:03:17.689Z,1008.76
2018-04-02T06:04:17.986Z,1008.76
2018-04-02T06:05:17.733Z,1008.83
2018-04-02T06:06:17.744Z,1008.83
2018-04-02T06:07:17.783Z,1008.86
2018-04-02T06:08:18.058Z,1008.82
2018-04-02T06:09:18.010Z,1008.86
2018-04-02T06:10:18.128Z,1008.86
2018-04-02T06:11:18.263Z,1008.84
2018-04-02T06:12:18.301Z,1008.9
2018-04-02T06:13:18.342Z,1008.82
2018-04-02T06:14:18.508Z,1008.85
2018-04-02T06:15:18.463Z,1008.85
2018-04-02T06:16:18.565Z,1008.86
2018-04-02T06:17:18.517Z,1008.84
2018-04-02T06:18:18.769Z,1008.93
2018-04-02T06:19:18.793Z,1008.86
2018-04-02T06:20:18.928Z,1008.9
2018-04-02T06:21:19.076Z,1008.93
2018-04-02T06:22:19.197Z,1008.9
2018-04-02T06:23:19.284Z,1008.96
2018-04-02T06:24:19.700Z,1008.98
2018-04-02T06:25:19.837Z,1008.95
2018-04-02T06:26:19.854Z,1008.94
2018-04-02T06:27:19.881Z,1008.97
2018-04-02T06:28:19.900Z,1009.03
2018-04-02T06:29:20.059Z,1009.19
2018-04-02T06:30:20.496Z,1009.41
2018-04-02T06:31:20.536Z,1009.4
2018-04-02T06:32:20.555Z,1009.64
2018-04-02T06:33:20.969Z,1009.74
2018-04-02T06:34:21.131Z,1009.73
2018-04-02T06:35:21.503Z,1009.77
2018-04-02T06:36:21.514Z,1009.78
2018-04-02T06:37:21.916Z,1009.9
2018-04-02T06:38:22.332Z,1009.79
2018-04-02T06:39:22.354Z,1009.79
2018-04-02T06:40:22.365Z,1009.07
2018-04-02T06:41:22.698Z,1010.08
2018-04-02T06:42:22.957Z,1009.98
2018-04-02T06:43:23.064Z,1009.96
2018-04-02T06:44:23.220Z,1009.9
2018-04-02T06:45:23.356Z,1009.9
2018-04-02T06:46:23.373Z,1009.72
2018-04-02T06:47:23.453Z,1009.89
2018-04-02T06:48:23.429Z,1010.07
2018-04-02T06:49:23.544Z,1010.1
2018-04-02T06:50:23.963Z,1010.01
2018-04-02T06:51:24.330Z,1010
2018-04-02T06:52:24.683Z,1009.97
2018-04-02T06:53:24.828Z,1009.83
2018-04-02T06:54:24.830Z,1009.58
2018-04-02T06:55:25.234Z,1009.79
2018-04-02T06:56:25.650Z,1010.24
2018-04-02T06:57:25.681Z,1010.26
2018-04-02T06:58:25.724Z,1010.32
2018-04-02T06:59:25.731Z,1010.26
2018-04-02T07:00:25.764Z,1010.21
2018-04-02T07:01:25.789Z,1010.28
2018-04-02T07:02:25.818Z,1010.32
2018-04-02T07:03:26.032Z,1010.22
2018-04-02T07:04:26.374Z,1010.26
2018-04-02T07:05:26.310Z,1010.33
2018-04-02T07:06:26.923Z,1010.37
2018-04-02T07:07:27.390Z,1010.45
2018-04-02T07:08:27.530Z,1010.44
2018-04-02T07:09:27.612Z,1010.45
2018-04-02T07:10:27.901Z,1010.49
2018-04-02T07:11:27.807Z,1010.37
2018-04-02T07:12:27.904Z,1010.33
2018-04-02T07:13:27.953Z,1010.24
2018-04-02T07:14:27.935Z,1010.17
2018-04-02T07:15:27.924Z,1010.22
2018-04-02T07:16:28.001Z,1010.27
2018-04-02T07:17:28.418Z,1010.31
2018-04-02T07:18:28.366Z,1010.34
2018-04-02T07:19:28.585Z,1010.4
2018-04-02T07:20:28.616Z,1010.51
2018-04-02T07:21:28.993Z,1010.4
2018-04-02T07:22:28.983Z,1010.4
2018-04-02T07:23:29.026Z,1010.28
2018-04-02T07:24:29.385Z,1010.36
2018-04-02T07:25:29.456Z,1010.34
2018-04-02T07:26:29.432Z,1010.37
2018-04-02T07:27:29.459Z,1010.4
2018-04-02T07:28:29.743Z,1010.32
2018-04-02T07:29:29.906Z,1010.33
2018-04-02T07:30:30.306Z,1010.25
2018-04-02T07:31:30.337Z,1010.19
2018-04-02T07:32:30.370Z,1010.25
2018-04-02T07:33:30.398Z,1010.16
2018-04-02T07:34:30.837Z,1010.16
2018-04-02T07:35:30.885Z,1010.08
2018-04-02T07:36:31.271Z,1010.1
2018-04-02T07:37:31.573Z,1009.97
2018-04-02T07:38:31.580Z,1009.95
2018-04-02T07:39:31.824Z,1009.93
2018-04-02T07:40:31.627Z,1009.94
2018-04-02T07:41:31.743Z,1009.96
2018-04-02T07:42:31.790Z,1009.71
2018-04-02T07:43:31.818Z,1009.97
2018-04-02T07:44:31.855Z,1009.97
2018-04-02T07:45:32.039Z,1009.12
2018-04-02T07:46:32.249Z,1009.89
2018-04-02T07:47:32.047Z,1009.74
2018-04-02T07:48:32.107Z,1009.81
2018-04-02T07:49:32.408Z,1009.76
2018-04-02T07:50:32.900Z,1009.68
2018-04-02T07:51:32.896Z,1009.74
2018-04-02T07:52:32.925Z,1009.61
2018-04-02T07:53:33.158Z,1009.63
2018-04-02T07:54:32.996Z,1009.61
2018-04-02T07:55:33.032Z,1009.76
2018-04-02T07:56:33.419Z,1009.77
2018-04-02T07:57:33.674Z,1009.71
2018-04-02T07:58:33.859Z,1009.79
2018-04-02T07:59:34.299Z,1009.79
2018-04-02T08:00:34.437Z,1009.74
2018-04-02T08:01:34.472Z,1009.69
2018-04-02T08:02:34.507Z,1009.67
2018-04-02T08:03:34.743Z,1009.48
2018-04-02T08:04:34.775Z,1009.65
2018-04-02T08:05:35.120Z,1009.65
2018-04-02T08:06:35.296Z,1009.68
2018-04-02T08:07:35.326Z,1009.63
2018-04-02T08:08:35.381Z,1009.7
2018-04-02T08:09:35.407Z,1009.66
2018-04-02T08:10:35.431Z,1009.69
2018-04-02T08:11:35.464Z,1009.71
2018-04-02T08:12:35.698Z,1009.67
2018-04-02T08:13:35.917Z,1009.7
2018-04-02T08:14:35.952Z,1009.73
2018-04-02T08:15:35.992Z,1009.54
2018-04-02T08:16:36.472Z,1009.66
2018-04-02T08:17:36.503Z,1009.66
2018-04-02T08:18:36.717Z,1009.63
2018-04-02T08:19:36.754Z,1009.65
2018-04-02T08:20:37.226Z,1009.65
2018-04-02T08:21:37.281Z,1009.62
2018-04-02T08:22:37.592Z,1009.56
2018-04-02T08:23:37.818Z,1009.54
2018-04-02T08:24:37.863Z,1009.53
2018-04-02T08:25:37.891Z,1009.49
2018-04-02T08:26:37.953Z,1009.48
2018-04-02T08:27:38.064Z,1009.51
2018-04-02T08:28:38.026Z,1009.47
2018-04-02T08:29:38.090Z,1009.46
2018-04-02T08:30:39.107Z,1009.48
2018-04-02T08:31:38.953Z,1009.52
2018-04-02T08:32:38.944Z,1009.59
2018-04-02T08:33:39.158Z,1009.71
2018-04-02T08:34:39.092Z,1009.72
2018-04-02T08:35:39.284Z,1009.74
2018-04-02T08:36:39.708Z,1009.72
2018-04-02T08:37:39.548Z,1009.71
2018-04-02T08:38:39.382Z,1009.71
2018-04-02T08:39:39.214Z,1009.79
2018-04-02T08:40:39.190Z,1009.77
2018-04-02T08:41:39.346Z,1009.78
2018-04-02T08:42:39.559Z,1009.81
2018-04-02T08:43:39.536Z,1009.74
2018-04-02T08:44:39.752Z,1009.76
2018-04-02T08:45:39.631Z,1009.78
2018-04-02T08:46:39.869Z,1009.72
2018-04-02T08:47:39.599Z,1009.54
2018-04-02T08:48:39.576Z,1009.78
2018-04-02T08:49:39.774Z,1009.79
2018-04-02T08:50:39.779Z,1009.9
2018-04-02T08:51:39.687Z,1009.92
2018-04-02T08:52:39.729Z,1009.81
2018-04-02T08:53:39.751Z,1009.69
2018-04-02T08:54:39.727Z,1009.69
2018-04-02T08:55:39.814Z,1009.81
2018-04-02T08:56:39.804Z,1010
2018-04-02T08:57:40.017Z,1009.77
2018-04-02T08:58:40.054Z,1009.64
2018-04-02T08:59:40.092Z,1009.64
2018-04-02T09:00:40.570Z,1009.63
2018-04-02T09:01:40.580Z,1009.67
2018-04-02T09:02:40.618Z,1009.68
2018-04-02T09:03:40.778Z,1009.64
2018-04-02T09:04:40.956Z,1009.67
2018-04-02T09:05:41.083Z,1009.69
2018-04-02T09:06:41.238Z,1009.69
2018-04-02T09:07:41.586Z,1009.65
2018-04-02T09:08:42.027Z,1009.64
2018-04-02T09:09:42.064Z,1009.78
2018-04-02T09:10:42.115Z,1009.75
2018-04-02T09:11:42.151Z,1009.69
2018-04-02T09:12:42.185Z,1009.65
2018-04-02T09:13:42.531Z,1009.64
2018-04-02T09:14:42.738Z,1009.62
2018-04-02T09:15:42.771Z,1009.67
2018-04-02T09:16:42.582Z,1009.61
2018-04-02T09:17:42.627Z,1009.6
2018-04-02T09:18:43.045Z,1009.65
2018-04-02T09:19:43.206Z,1009.69
2018-04-02T09:20:43.613Z,1009.73
2018-04-02T09:21:43.657Z,1009.67
2018-04-02T09:22:44.148Z,1009.7
2018-04-02T09:23:44.389Z,1009.88
2018-04-02T09:24:44.321Z,1009.94
2018-04-02T09:25:44.677Z,1009.67
2018-04-02T09:26:44.759Z,1009.95
2018-04-02T09:27:44.709Z,1009.91
2018-04-02T09:28:44.746Z,1009.88
2018-04-02T09:29:45.058Z,1009.87
2018-04-02T09:30:44.821Z,1009.87
2018-04-02T09:31:44.859Z,1009.83
2018-04-02T09:32:44.891Z,1009.81
2018-04-02T09:33:44.928Z,1009.66
2018-04-02T09:34:44.970Z,1009.49
2018-04-02T09:35:45.416Z,1009.56
2018-04-02T09:36:45.462Z,1010.01
2018-04-02T09:37:45.475Z,1010.03
2018-04-02T09:38:45.956Z,1009.37
2018-04-02T09:39:46.588Z,1010.02
2018-04-02T09:40:46.514Z,1010.05
2018-04-02T09:41:46.529Z,1010.16
2018-04-02T09:42:47.583Z,1010.08
2018-04-02T09:43:47.326Z,1010.08
2018-04-02T09:44:47.241Z,1010.05
2018-04-02T09:45:47.238Z,1010.03
2018-04-02T09:46:48.051Z,1010.04
2018-04-02T09:47:47.913Z,1010.04
2018-04-02T09:48:47.804Z,1010.01
2018-04-02T09:49:48.909Z,1010.04
2018-04-02T09:50:48.814Z,1010.04
2018-04-02T09:51:48.930Z,1009.68
2018-04-02T09:52:48.994Z,1009.88
2018-04-02T09:53:49.462Z,1010.13
2018-04-02T09:54:49.002Z,1010.29
2018-04-02T09:55:49.288Z,1010.06
2018-04-02T09:56:49.106Z,1009.52
2018-04-02T09:57:49.073Z,1009.65
2018-04-02T09:58:49.438Z,1009.37
2018-04-02T09:59:49.281Z,1009.9
2018-04-02T10:00:49.486Z,1010.28
2018-04-02T10:01:49.578Z,1010.38
2018-04-02T10:02:49.331Z,1010.34
2018-04-02T10:03:49.576Z,1010.06
2018-04-02T10:04:49.423Z,1010.3
2018-04-02T10:05:49.425Z,1009.74
2018-04-02T10:06:49.394Z,1010.28
2018-04-02T10:07:49.432Z,1010.33
2018-04-02T10:08:49.583Z,1010.29
2018-04-02T10:09:49.620Z,1009.68
2018-04-02T10:10:49.660Z,1010.1
2018-04-02T10:11:49.718Z,1009.3
2018-04-02T10:12:49.747Z,1010.04
2018-04-02T10:13:50.647Z,1009.92
2018-04-02T10:14:50.398Z,1009.51
2018-04-02T10:15:50.461Z,1010.34
2018-04-02T10:16:50.902Z,1010.42
2018-04-02T10:17:51.056Z,1010.63
2018-04-02T10:18:51.094Z,1010.71
2018-04-02T10:19:51.510Z,1010.78
2018-04-02T10:20:51.931Z,1010.56
2018-04-02T10:21:52.084Z,1010.51
2018-04-02T10:22:52.892Z,1009.84
2018-04-02T10:23:52.873Z,1009.17
2018-04-02T10:24:52.838Z,1010.63
2018-04-02T10:25:52.892Z,1010.44
2018-04-02T10:26:53.052Z,1009.89
2018-04-02T10:27:53.082Z,1010.49
2018-04-02T10:28:53.528Z,1010.22
2018-04-02T10:29:53.774Z,1010.17
2018-04-02T10:30:53.792Z,1010.05
2018-04-02T10:31:53.849Z,1010.03
2018-04-02T10:32:54.327Z,1010.11
2018-04-02T10:33:54.375Z,1010.3
2018-04-02T10:34:54.463Z,1010.79
2018-04-02T10:35:54.775Z,1011.32
2018-04-02T10:36:54.811Z,1011.59
2018-04-02T10:37:54.917Z,1011.44
2018-04-02T10:38:54.879Z,1011.84
2018-04-02T10:39:55.209Z,1011.98
2018-04-02T10:40:55.481Z,1011.99
2018-04-02T10:41:55.805Z,1012.08
2018-04-02T10:42:55.841Z,1012.09
2018-04-02T10:43:56.021Z,1012.28
2018-04-02T10:44:56.053Z,1012.57
2018-04-02T10:45:56.096Z,1012.7
2018-04-02T10:46:56.118Z,1012.8
2018-04-02T10:47:56.156Z,1012.64
2018-04-02T10:48:56.201Z,1012.58
2018-04-02T10:49:56.645Z,1012.91
2018-04-02T10:50:56.662Z,1013.38
2018-04-02T10:51:57.074Z,1013.46
2018-04-02T10:52:57.329Z,1013.14
2018-04-02T10:53:57.329Z,1013.44
2018-04-02T10:54:57.370Z,1013.39
2018-04-02T10:55:57.402Z,1012.88
2018-04-02T10:56:57.418Z,1010.72
2018-04-02T10:57:57.816Z,1009.03
2018-04-02T10:58:57.979Z,1008.93
2018-04-02T10:59:58.023Z,1008.85
2018-04-02T11:00:58.071Z,1008.77
2018-04-02T11:01:58.332Z,1008.83
2018-04-02T11:02:58.369Z,1008.84
2018-04-02T11:03:58.402Z,1008.89
2018-04-02T11:04:58.433Z,1008.8
2018-04-02T11:05:58.470Z,1008.76
2018-04-02T11:06:58.496Z,1008.7
2018-04-02T11:07:58.531Z,1008.7
2018-04-02T11:08:58.566Z,1008.73
2018-04-02T11:09:58.894Z,1008.71
2018-04-02T11:10:58.632Z,1008.71
2018-04-02T11:11:58.656Z,1008.69
2018-04-02T11:12:58.686Z,1008.7
2018-04-02T11:13:58.716Z,1008.7
2018-04-02T11:14:58.878Z,1008.71
2018-04-02T11:15:58.787Z,1008.68
2018-04-02T11:16:58.863Z,1008.72
2018-04-02T11:17:58.880Z,1008.62
2018-04-02T11:18:58.907Z,1008.74
2018-04-02T11:19:58.928Z,1008.63
2018-04-02T11:20:58.954Z,1008.59
2018-04-02T11:21:58.987Z,1008.69
2018-04-02T11:22:59.019Z,1008.63
2018-04-02T11:23:59.308Z,1008.63
2018-04-02T11:24:59.378Z,1008.6
2018-04-02T11:25:59.364Z,1008.63
2018-04-02T11:26:59.643Z,1008.6
2018-04-02T11:27:59.680Z,1008.6
2018-04-02T11:28:59.748Z,1008.65
2018-04-02T11:29:59.733Z,1008.62
2018-04-02T11:30:59.770Z,1008.59
2018-04-02T11:32:00.030Z,1008.6
2018-04-02T11:33:00.057Z,1008.66
2018-04-02T11:34:00.098Z,1008.52
2018-04-02T11:35:00.332Z,1008.53
2018-04-02T11:36:00.224Z,1008.51
2018-04-02T11:37:00.225Z,1008.51
2018-04-02T11:38:00.243Z,1008.55
2018-04-02T11:39:00.276Z,1008.55
2018-04-02T11:40:00.299Z,1008.55
2018-04-02T11:41:00.329Z,1008.53
2018-04-02T11:42:00.640Z,1008.59
2018-04-02T11:43:00.673Z,1008.65
2018-04-02T11:44:00.706Z,1008.59
2018-04-02T11:45:00.748Z,1008.54
2018-04-02T11:46:00.756Z,1008.53
2018-04-02T11:47:00.799Z,1008.49
2018-04-02T11:48:01.056Z,1008.46
2018-04-02T11:49:01.640Z,1008.48
2018-04-02T11:50:01.935Z,1008.39
2018-04-02T11:51:01.669Z,1008.42
2018-04-02T11:52:01.852Z,1008.38
2018-04-02T11:53:02.147Z,1008.35
2018-04-02T11:54:02.182Z,1008.41
2018-04-02T11:55:02.284Z,1008.39
2018-04-02T11:56:02.552Z,1008.42
2018-04-02T11:57:02.523Z,1008.41
2018-04-02T11:58:02.348Z,1008.42
2018-04-02T11:59:02.322Z,1008.48
2018-04-02T12:01:02.376Z,1008.42
2018-04-02T12:02:02.735Z,1008.43
2018-04-02T12:03:02.856Z,1008.4
2018-04-02T12:04:02.915Z,1008.38
2018-04-02T12:05:03.003Z,1008.39
2018-04-02T12:06:03.462Z,1008.42
2018-04-02T12:07:03.478Z,1008.33
2018-04-02T12:08:03.925Z,1008.31
2018-04-02T12:09:03.948Z,1008.32
2018-04-02T12:10:04.472Z,1008.32
2018-04-02T12:11:04.425Z,1008.33